createdAt,value
2023-01-27T00:02:45.285Z,9.6
2023-01-27T00:07:59.621Z,10.7
2023-01-27T00:13:45.155Z,8.4
2023-01-27T00:19:15.905Z,10.7
2023-01-27T00:25:05.486Z,7.2
2023-01-27T00:30:13.428Z,4.8
2023-01-27T00:36:13.341Z,7.2
2023-01-27T00:41:22.834Z,7.2
2023-01-27T00:47:13.344Z,4.8
2023-01-27T00:52:28.736Z,3.6
2023-01-27T00:58:12.334Z,5.9
2023-01-27T01:03:42.221Z,4.8
2023-01-27T01:09:10.802Z,3.6
2023-01-27T01:14:59.149Z,2.4
2023-01-27T01:20:28.139Z,0
2023-01-27T01:25:55.804Z,0
2023-01-27T01:31:19.896Z,0
2023-01-27T01:37:19.413Z,3.6
2023-01-27T01:42:30.892Z,0
2023-01-27T01:48:21.878Z,3.6
2023-01-27T01:53:58.949Z,7.2
2023-01-27T01:59:09.395Z,8.4
2023-01-27T02:04:50.152Z,5.9
2023-01-27T02:10:24.503Z,8.4
2023-01-27T02:16:00.919Z,9.6
2023-01-27T02:21:49.726Z,8.4
2023-01-27T02:27:02.903Z,7.2
2023-01-27T02:32:31.890Z,10.7
2023-01-27T02:38:23.972Z,7.2
2023-01-27T02:43:47.394Z,7.2
2023-01-27T02:49:26.077Z,5.9
2023-01-27T02:55:02.206Z,4.8
2023-01-27T03:00:23.761Z,10.7
2023-01-27T03:06:08.805Z,10.7
2023-01-27T03:11:43.449Z,11.9
2023-01-27T03:17:05.081Z,10.7
2023-01-27T03:22:45.603Z,8.4
2023-01-27T03:28:06.590Z,9.6
2023-01-27T03:34:01.743Z,10.7
2023-01-27T03:39:28.080Z,10.7
2023-01-27T03:45:13.975Z,9.6
2023-01-27T03:50:24.141Z,9.6
2023-01-27T03:55:57.028Z,9.6
2023-01-27T04:01:30.750Z,9.6
2023-01-27T04:07:01.279Z,10.7
2023-01-27T04:12:50.108Z,11.9
2023-01-27T04:18:15.601Z,9.6
2023-01-27T04:23:57.586Z,8.4
2023-01-27T04:29:37.577Z,10.7
2023-01-27T04:34:55.715Z,10.7
2023-01-27T04:46:16.159Z,11.9
2023-01-27T05:08:39.224Z,10.7
2023-01-27T05:19:48.035Z,11.9
2023-01-27T06:04:29.892Z,9.6
2023-01-27T06:20:51.329Z,9.6
2023-01-27T06:26:42.771Z,8.4
2023-01-27T06:32:09.701Z,10.7
2023-01-27T06:37:31.073Z,9.6
2023-01-27T06:43:09.205Z,10.7
2023-01-27T06:48:46.454Z,10.7
2023-01-27T06:54:13.792Z,11.9
2023-01-27T06:59:56.847Z,13.2
2023-01-27T07:05:28.967Z,11.9
2023-01-27T07:11:01.990Z,10.7
2023-01-27T07:16:40.793Z,15.6
2023-01-27T07:22:02.382Z,11.9
2023-01-27T07:27:38.007Z,11.9
2023-01-27T07:33:16.321Z,11.9
2023-01-27T07:38:56.259Z,11.9
2023-01-27T07:44:33.903Z,11.9
2023-01-27T07:49:53.334Z,8.4
2023-01-27T07:55:43.601Z,4.8
2023-01-27T08:01:00.224Z,3.6
2023-01-27T08:06:29.265Z,2.4
2023-01-27T08:12:11.146Z,3.6
2023-01-27T08:17:49.122Z,8.4
2023-01-27T08:23:09.543Z,8.4
2023-01-27T08:28:56.281Z,9.6
2023-01-27T08:34:24.594Z,10.7
2023-01-27T08:39:48.074Z,11.9
2023-01-27T08:45:23.005Z,14.4
2023-01-27T08:50:55.679Z,14.4
2023-01-27T08:56:33.096Z,14.4
2023-01-27T09:02:22.261Z,14.4
2023-01-27T09:07:48.522Z,15.6
2023-01-27T09:13:27.755Z,14.4
2023-01-27T09:18:45.420Z,18
2023-01-27T09:24:37.217Z,13.2
2023-01-27T09:30:12.991Z,14.4
2023-01-27T09:35:28.514Z,15.6
2023-01-27T09:41:17.576Z,11.9
2023-01-27T09:46:38.661Z,15.6
2023-01-27T09:52:38.491Z,14.4
2023-01-27T09:58:06.142Z,16.8
2023-01-27T10:03:17.304Z,14.4
2023-01-27T10:09:02.340Z,14.4
2023-01-27T10:14:45.158Z,14.4
2023-01-27T10:20:00.590Z,13.2
2023-01-27T10:25:48.811Z,15.6
2023-01-27T10:31:06.103Z,15.6
2023-01-27T10:37:04.974Z,16.8
2023-01-27T10:42:21.256Z,14.4
2023-01-27T10:47:53.090Z,16.8
2023-01-27T10:53:19.614Z,15.6
2023-01-27T10:59:01.387Z,14.4
2023-01-27T11:04:47.279Z,18
2023-01-27T11:10:17.932Z,16.8
2023-01-27T11:15:37.414Z,14.4
2023-01-27T11:21:38.215Z,15.6
2023-01-27T11:26:59.444Z,11.9
2023-01-27T11:32:45.631Z,11.9
2023-01-27T11:38:06.434Z,11.9
2023-01-27T11:43:46.991Z,11.9
2023-01-27T11:49:07.341Z,14.4
2023-01-27T11:54:43.545Z,16.8
2023-01-27T12:00:14.528Z,15.6
2023-01-27T12:05:46.785Z,15.6
2023-01-27T12:11:14.829Z,14.4
2023-01-27T12:17:03.563Z,14.4
2023-01-27T12:22:31.688Z,14.4
2023-01-27T12:28:00.535Z,18
2023-01-27T12:33:51.551Z,18
2023-01-27T12:39:08.623Z,16.8
2023-01-27T12:45:01.018Z,14.4
2023-01-27T12:50:35.883Z,18
2023-01-27T12:56:01.104Z,16.8
2023-01-27T13:01:36.210Z,15.6
2023-01-27T13:06:58.677Z,15.6
2023-01-27T13:12:46.365Z,16.8
2023-01-27T13:18:05.639Z,18
2023-01-27T13:23:46.844Z,15.6
2023-01-27T13:29:30.416Z,18
2023-01-27T13:34:49.488Z,13.2
2023-01-27T13:40:47.126Z,14.4
2023-01-27T13:46:17.516Z,15.6
2023-01-27T13:51:51.825Z,10.7
2023-01-27T13:57:04.141Z,11.9
2023-01-27T14:03:05.576Z,15.6
2023-01-27T14:08:16.103Z,13.2
2023-01-27T14:13:57.420Z,13.2
2023-01-27T14:19:25.892Z,13.2
2023-01-27T14:25:05.795Z,11.9
2023-01-27T14:30:43.547Z,10.7
2023-01-27T14:36:02.560Z,13.2
2023-01-27T14:41:34.916Z,11.9
2023-01-27T14:47:24.555Z,14.4
2023-01-27T14:52:50.153Z,11.9
2023-01-27T14:58:46.615Z,11.9
2023-01-27T15:04:10.565Z,11.9
2023-01-27T15:09:52.754Z,10.7
2023-01-27T15:15:30.839Z,11.9
2023-01-27T15:21:00.115Z,11.9
2023-01-27T15:26:27.705Z,9.6
2023-01-27T15:32:05.746Z,8.4
2023-01-27T15:37:41.997Z,7.2
2023-01-27T15:43:08.924Z,7.2
2023-01-27T15:48:40.509Z,7.2
2023-01-27T15:54:01.405Z,10.7
2023-01-27T15:59:59.399Z,11.9
2023-01-27T16:05:19.964Z,13.2
2023-01-27T16:10:51.757Z,14.4
2023-01-27T16:16:26.649Z,11.9
2023-01-27T16:21:59.466Z,14.4
2023-01-27T16:27:38.368Z,13.2
2023-01-27T16:33:08.531Z,11.9
2023-01-27T16:38:50.874Z,9.6
2023-01-27T16:44:13.807Z,10.7
2023-01-27T16:50:01.883Z,10.7
2023-01-27T16:55:12.690Z,11.9
2023-01-27T17:00:58.739Z,11.9
2023-01-27T17:06:42.271Z,11.9
2023-01-27T17:12:17.859Z,13.2
2023-01-27T17:17:40.943Z,14.4
2023-01-27T17:23:21.511Z,15.6
2023-01-27T17:28:53.064Z,11.9
2023-01-27T17:34:20.857Z,14.4
2023-01-27T17:40:02.236Z,13.2
2023-01-27T17:45:23.823Z,13.2
2023-01-27T17:50:58.775Z,13.2
2023-01-27T17:56:37.446Z,13.2
2023-01-27T18:02:18.096Z,14.4
2023-01-27T18:07:52.068Z,13.2
2023-01-27T18:13:26.899Z,10.7
2023-01-27T18:19:03.943Z,11.9
2023-01-27T18:24:09.807Z,10.7
2023-01-27T18:29:57.054Z,9.6
2023-01-27T18:35:26.812Z,13.2
2023-01-27T18:41:13.957Z,14.4
2023-01-27T18:46:53.493Z,13.2
2023-01-27T18:52:09.665Z,11.9
2023-01-27T18:57:57.886Z,9.6
2023-01-27T19:03:27.220Z,9.6
2023-01-27T19:08:43.780Z,10.7
2023-01-27T19:14:42.167Z,10.7
2023-01-27T19:19:51.338Z,7.2
2023-01-27T19:25:23.747Z,8.4
2023-01-27T19:31:15.382Z,10.7
2023-01-27T19:36:56.646Z,9.6
2023-01-27T19:42:21.062Z,11.9
2023-01-27T19:47:54.635Z,11.9
2023-01-27T19:53:36.240Z,9.6
2023-01-27T19:59:03.742Z,11.9
2023-01-27T20:04:34.181Z,13.2
2023-01-27T20:10:13.282Z,13.2
2023-01-27T20:15:39.319Z,13.2
2023-01-27T20:20:57.623Z,13.2
2023-01-27T20:26:35.169Z,15.6
2023-01-27T20:32:23.729Z,15.6
2023-01-27T20:37:44.543Z,15.6
2023-01-27T20:43:13.510Z,14.4
2023-01-27T20:49:14.036Z,14.4
2023-01-27T20:54:47.083Z,16.8
2023-01-27T21:00:21.295Z,16.8
2023-01-27T21:05:54.371Z,14.4
2023-01-27T21:11:31.223Z,11.9
2023-01-27T21:16:46.904Z,14.4
2023-01-27T21:22:30.315Z,16.8
2023-01-27T21:28:06.154Z,15.6
2023-01-27T21:33:30.655Z,14.4
2023-01-27T21:39:16.683Z,16.8
2023-01-27T21:44:33.562Z,14.4
2023-01-27T21:50:18.571Z,14.4
2023-01-27T21:55:48.483Z,16.8
2023-01-27T22:01:06.579Z,15.6
2023-01-27T22:07:03.701Z,16.8
2023-01-27T22:12:32.850Z,16.8
2023-01-27T22:18:13.219Z,15.6
2023-01-27T22:23:33.483Z,16.8
2023-01-27T22:29:20.318Z,14.4
2023-01-27T22:34:37.695Z,14.4
2023-01-27T22:40:26.614Z,14.4
2023-01-27T22:46:03.241Z,15.6
2023-01-27T22:51:10.822Z,14.4
2023-01-27T22:56:45.975Z,13.2
2023-01-27T23:02:33.317Z,13.2
2023-01-27T23:08:17.761Z,14.4
2023-01-27T23:13:37.134Z,14.4
2023-01-27T23:19:19.580Z,14.4
2023-01-27T23:24:44.090Z,14.4
2023-01-27T23:30:34.762Z,13.2
2023-01-27T23:35:56.565Z,11.9
2023-01-27T23:41:39.187Z,10.7
2023-01-27T23:46:52.589Z,9.6
2023-01-27T23:52:37.320Z,8.4
2023-01-27T23:57:59.081Z,9.6
